sensor_id;sensor_type;location;lat;lon;timestamp;pressure;altitude;pressure_sealevel;temperature;humidity
25650;BME280;13505;45.196;5.696;2023-04-07T06:03:51;99200.69;;;8.56;48.22
25650;BME280;13505;45.196;5.696;2023-04-07T06:08:41;99203.28;;;8.80;48.97
25650;BME280;13505;45.196;5.696;2023-04-07T06:13:31;99187.50;;;9.02;48.66
25650;BME280;13505;45.196;5.696;2023-04-07T06:18:22;99199.78;;;9.03;48.39
25650;BME280;13505;45.196;5.696;2023-04-07T06:23:12;99200.97;;;8.94;49.01
25650;BME280;13505;45.196;5.696;2023-04-07T06:28:02;99189.50;;;8.97;49.20
25650;BME280;13505;45.196;5.696;2023-04-07T06:32:53;99190.97;;;9.04;50.02
25650;BME280;13505;45.196;5.696;2023-04-07T06:37:43;99202.94;;;9.12;50.04
25650;BME280;13505;45.196;5.696;2023-04-07T06:42:34;99197.66;;;9.35;50.53
25650;BME280;13505;45.196;5.696;2023-04-07T06:47:24;99201.47;;;9.49;49.42
25650;BME280;13505;45.196;5.696;2023-04-07T06:52:15;99218.81;;;9.55;50.35
25650;BME280;13505;45.196;5.696;2023-04-07T06:57:05;99218.22;;;9.69;50.37
25650;BME280;13505;45.196;5.696;2023-04-07T07:02:00;99228.78;;;9.69;49.92
25650;BME280;13505;45.196;5.696;2023-04-07T07:06:51;99230.63;;;9.67;49.60
25650;BME280;13505;45.196;5.696;2023-04-07T07:11:41;99242.22;;;9.61;52.41
25650;BME280;13505;45.196;5.696;2023-04-07T07:16:31;99226.31;;;9.64;53.39
25650;BME280;13505;45.196;5.696;2023-04-07T07:21:22;99244.50;;;9.70;54.95
25650;BME280;13505;45.196;5.696;2023-04-07T07:26:12;99238.31;;;9.71;55.68
25650;BME280;13505;45.196;5.696;2023-04-07T07:31:10;99245.03;;;9.78;55.42
25650;BME280;13505;45.196;5.696;2023-04-07T07:36:02;99239.31;;;9.69;54.19
25650;BME280;13505;45.196;5.696;2023-04-07T07:40:53;99251.09;;;9.81;55.41
25650;BME280;13505;45.196;5.696;2023-04-07T07:45:44;99262.13;;;9.90;56.05
25650;BME280;13505;45.196;5.696;2023-04-07T07:50:34;99269.69;;;9.98;58.27
25650;BME280;13505;45.196;5.696;2023-04-07T07:55:25;99289.63;;;9.83;59.63
25650;BME280;13505;45.196;5.696;2023-04-07T08:00:15;99286.44;;;9.75;61.62
25650;BME280;13505;45.196;5.696;2023-04-07T08:05:06;99303.97;;;9.54;64.12
25650;BME280;13505;45.196;5.696;2023-04-07T08:09:57;99295.34;;;9.50;64.01
25650;BME280;13505;45.196;5.696;2023-04-07T08:25:01;99330.69;;;9.67;71.67
25650;BME280;13505;45.196;5.696;2023-04-07T08:30:06;99327.38;;;9.61;74.33
25650;BME280;13505;45.196;5.696;2023-04-07T08:35:12;99329.34;;;9.56;74.46
25650;BME280;13505;45.196;5.696;2023-04-07T08:40:03;99350.25;;;9.37;72.31
25650;BME280;13505;45.196;5.696;2023-04-07T09:11:04;99378.63;;;9.53;67.44
25650;BME280;13505;45.196;5.696;2023-04-07T09:15:55;99388.00;;;9.60;69.62
25650;BME280;13505;45.196;5.696;2023-04-07T09:21:00;99390.03;;;9.05;71.13
25650;BME280;13505;45.196;5.696;2023-04-07T09:25:50;99390.34;;;8.96;73.20
25650;BME280;13505;45.196;5.696;2023-04-07T09:30:51;99392.81;;;9.01;73.15
25650;BME280;13505;45.196;5.696;2023-04-07T09:35:50;99387.69;;;9.21;74.31
25650;BME280;13505;45.196;5.696;2023-04-07T09:40:42;99390.06;;;9.28;73.93
25650;BME280;13505;45.196;5.696;2023-04-07T09:45:37;99396.09;;;9.07;73.14
25650;BME280;13505;45.196;5.696;2023-04-07T09:55:29;99389.91;;;9.32;74.38
25650;BME280;13505;45.196;5.696;2023-04-07T10:00:20;99395.22;;;9.55;74.23
25650;BME280;13505;45.196;5.696;2023-04-07T10:05:11;99396.19;;;9.52;75.68
25650;BME280;13505;45.196;5.696;2023-04-07T10:10:05;99388.69;;;9.87;76.06
25650;BME280;13505;45.196;5.696;2023-04-07T10:14:58;99375.84;;;10.45;74.53
25650;BME280;13505;45.196;5.696;2023-04-07T10:19:50;99377.94;;;11.39;74.38
25650;BME280;13505;45.196;5.696;2023-04-07T10:24:55;99374.28;;;11.80;68.00
25650;BME280;13505;45.196;5.696;2023-04-07T10:29:49;99370.81;;;12.16;64.05
25650;BME280;13505;45.196;5.696;2023-04-07T10:39:42;99349.75;;;12.14;61.92
25650;BME280;13505;45.196;5.696;2023-04-07T10:49:33;99334.25;;;12.93;60.03
25650;BME280;13505;45.196;5.696;2023-04-07T10:54:24;99327.59;;;12.86;57.61
25650;BME280;13505;45.196;5.696;2023-04-07T10:59:17;99335.72;;;12.99;55.82
25650;BME280;13505;45.196;5.696;2023-04-07T11:04:08;99323.78;;;12.23;59.58
25650;BME280;13505;45.196;5.696;2023-04-07T11:08:58;99310.78;;;12.87;59.59
25650;BME280;13505;45.196;5.696;2023-04-07T11:13:49;99294.06;;;12.69;56.08
25650;BME280;13505;45.196;5.696;2023-04-07T11:18:40;99292.06;;;12.56;56.69
25650;BME280;13505;45.196;5.696;2023-04-07T11:23:39;99291.69;;;12.64;56.67
25650;BME280;13505;45.196;5.696;2023-04-07T11:28:31;99278.28;;;13.33;54.94
25650;BME280;13505;45.196;5.696;2023-04-07T11:33:26;99266.38;;;12.92;56.12
25650;BME280;13505;45.196;5.696;2023-04-07T11:38:17;99253.00;;;13.60;55.06
25650;BME280;13505;45.196;5.696;2023-04-07T11:43:25;99247.41;;;14.26;54.43
25650;BME280;13505;45.196;5.696;2023-04-07T11:58:16;99230.78;;;14.07;52.98
25650;BME280;13505;45.196;5.696;2023-04-07T12:03:10;99216.03;;;14.32;52.74
25650;BME280;13505;45.196;5.696;2023-04-07T12:08:03;99223.13;;;14.17;50.33
25650;BME280;13505;45.196;5.696;2023-04-07T12:12:53;99227.03;;;14.41;52.15
25650;BME280;13505;45.196;5.696;2023-04-07T12:17:45;99221.44;;;14.60;48.58
25650;BME280;13505;45.196;5.696;2023-04-07T12:22:36;99221.75;;;14.55;49.98
25650;BME280;13505;45.196;5.696;2023-04-07T12:27:26;99214.72;;;14.25;49.50
25650;BME280;13505;45.196;5.696;2023-04-07T12:32:17;99211.09;;;14.12;48.86
25650;BME280;13505;45.196;5.696;2023-04-07T12:37:08;99194.47;;;13.93;50.91
25650;BME280;13505;45.196;5.696;2023-04-07T12:41:58;99199.31;;;13.56;48.85
25650;BME280;13505;45.196;5.696;2023-04-07T12:46:50;99182.00;;;13.65;51.34
25650;BME280;13505;45.196;5.696;2023-04-07T12:51:40;99178.34;;;14.56;50.61
25650;BME280;13505;45.196;5.696;2023-04-07T12:56:30;99178.38;;;14.98;46.44
25650;BME280;13505;45.196;5.696;2023-04-07T13:01:21;99145.88;;;15.62;47.03
25650;BME280;13505;45.196;5.696;2023-04-07T13:06:12;99131.47;;;15.93;42.82
25650;BME280;13505;45.196;5.696;2023-04-07T13:16:02;99119.00;;;16.69;45.09
25650;BME280;13505;45.196;5.696;2023-04-07T13:20:53;99135.72;;;15.95;43.34
25650;BME280;13505;45.196;5.696;2023-04-07T13:25:43;99149.06;;;15.81;42.06
25650;BME280;13505;45.196;5.696;2023-04-07T13:46:25;99265.03;;;13.65;58.44
25650;BME280;13505;45.196;5.696;2023-04-07T13:51:16;99268.84;;;13.11;61.52
25650;BME280;13505;45.196;5.696;2023-04-07T13:56:07;99274.06;;;12.63;60.57
25650;BME280;13505;45.196;5.696;2023-04-07T14:00:58;99263.47;;;12.63;62.41
25650;BME280;13505;45.196;5.696;2023-04-07T14:05:49;99264.66;;;12.91;66.40
25650;BME280;13505;45.196;5.696;2023-04-07T14:10:39;99269.16;;;13.23;63.97
25650;BME280;13505;45.196;5.696;2023-04-07T14:15:29;99264.94;;;13.19;58.17
25650;BME280;13505;45.196;5.696;2023-04-07T14:20:20;99262.22;;;13.04;56.12
25650;BME280;13505;45.196;5.696;2023-04-07T14:25:10;99261.34;;;13.20;54.70
25650;BME280;13505;45.196;5.696;2023-04-07T14:30:07;99258.88;;;13.17;55.71
25650;BME280;13505;45.196;5.696;2023-04-07T14:34:57;99247.94;;;12.91;54.89
25650;BME280;13505;45.196;5.696;2023-04-07T14:39:48;99242.97;;;12.51;55.19
25650;BME280;13505;45.196;5.696;2023-04-07T14:44:38;99245.25;;;12.59;53.22
25650;BME280;13505;45.196;5.696;2023-04-07T14:49:29;99235.78;;;12.87;55.12
25650;BME280;13505;45.196;5.696;2023-04-07T14:54:20;99236.00;;;12.66;52.28
25650;BME280;13505;45.196;5.696;2023-04-07T14:59:10;99237.31;;;12.59;50.63
25650;BME280;13505;45.196;5.696;2023-04-07T15:04:02;99234.38;;;12.63;49.11
25650;BME280;13505;45.196;5.696;2023-04-07T15:08:53;99241.66;;;12.60;48.49
25650;BME280;13505;45.196;5.696;2023-04-07T15:13:44;99231.25;;;12.89;47.85
25650;BME280;13505;45.196;5.696;2023-04-07T15:18:38;99231.88;;;12.78;45.20
25650;BME280;13505;45.196;5.696;2023-04-07T15:23:28;99221.03;;;13.15;45.66
25650;BME280;13505;45.196;5.696;2023-04-07T15:28:19;99223.31;;;13.37;44.43
25650;BME280;13505;45.196;5.696;2023-04-07T15:33:10;99218.19;;;13.34;43.95
25650;BME280;13505;45.196;5.696;2023-04-07T15:38:00;99218.69;;;13.57;43.14
25650;BME280;13505;45.196;5.696;2023-04-07T15:47:52;99211.38;;;13.46;44.89
25650;BME280;13505;45.196;5.696;2023-04-07T15:52:42;99218.47;;;13.45;43.43
25650;BME280;13505;45.196;5.696;2023-04-07T15:57:32;99208.97;;;13.41;44.07
25650;BME280;13505;45.196;5.696;2023-04-07T16:02:23;99209.66;;;13.29;44.35
25650;BME280;13505;45.196;5.696;2023-04-07T16:07:13;99209.06;;;13.23;44.37
25650;BME280;13505;45.196;5.696;2023-04-07T16:12:03;99219.41;;;13.28;45.29
25650;BME280;13505;45.196;5.696;2023-04-07T16:16:55;99214.72;;;13.17;45.85
25650;BME280;13505;45.196;5.696;2023-04-07T16:21:47;99211.13;;;13.18;48.81
25650;BME280;13505;45.196;5.696;2023-04-07T16:26:38;99221.81;;;13.01;49.16
25650;BME280;13505;45.196;5.696;2023-04-07T16:31:28;99233.41;;;13.30;46.83
25650;BME280;13505;45.196;5.696;2023-04-07T16:36:19;99248.72;;;13.41;48.18
25650;BME280;13505;45.196;5.696;2023-04-07T16:41:09;99245.06;;;13.28;51.06
25650;BME280;13505;45.196;5.696;2023-04-07T16:46:01;99240.47;;;12.65;51.03
25650;BME280;13505;45.196;5.696;2023-04-07T16:50:51;99252.72;;;12.50;51.96
25650;BME280;13505;45.196;5.696;2023-04-07T16:55:41;99253.91;;;12.27;50.91
25650;BME280;13505;45.196;5.696;2023-04-07T17:00:32;99250.72;;;12.38;50.71
25650;BME280;13505;45.196;5.696;2023-04-07T17:05:22;99244.03;;;12.31;49.01
25650;BME280;13505;45.196;5.696;2023-04-07T17:10:13;99254.03;;;12.41;49.61
25650;BME280;13505;45.196;5.696;2023-04-07T17:15:03;99249.97;;;12.52;50.78
25650;BME280;13505;45.196;5.696;2023-04-07T17:19:54;99245.97;;;12.45;52.04
25650;BME280;13505;45.196;5.696;2023-04-07T17:24:44;99249.69;;;12.40;52.11
25650;BME280;13505;45.196;5.696;2023-04-07T17:29:34;99251.50;;;12.40;51.52
25650;BME280;13505;45.196;5.696;2023-04-07T17:34:25;99249.91;;;12.36;50.87
25650;BME280;13505;45.196;5.696;2023-04-07T17:39:15;99253.38;;;12.20;51.02
25650;BME280;13505;45.196;5.696;2023-04-07T17:44:06;99261.00;;;12.09;51.98
25650;BME280;13505;45.196;5.696;2023-04-07T17:48:56;99263.53;;;11.93;52.67
25650;BME280;13505;45.196;5.696;2023-04-07T17:53:48;99261.56;;;11.79;53.65
25650;BME280;13505;45.196;5.696;2023-04-07T17:58:38;99263.91;;;11.67;53.54
